Time;durP1;ratioP1;P1;durP2;ratioP2;P2;SDS_P1;SDS_P2;PMS_P1;PMS_P2;Temp;Humidity;BMP_temperature;BMP_pressure;BME280_temperature;BME280_humidity;BME280_pressure;Samples;Min_cycle;Max_cycle;Signal;HPM_P1;HPM_P2
2021/01/27 00:00:30;;;;;;;7.25;4.07;;;;;;;;;;5077486;28;20052;-65
2021/01/27 00:02:56;;;;;;;11.93;5.82;;;;;;;;;;5076634;28;20115;-65
2021/01/27 00:05:26;;;;;;;10.20;5.22;;;;;;;;;;5075078;28;20384;-65
2021/01/27 00:07:52;;;;;;;12.52;5.53;;;;;;;;;;5074197;28;20028;-65
2021/01/27 00:10:17;;;;;;;11.30;5.20;;;;;;;;;;5076978;28;20043;-65
2021/01/27 00:12:42;;;;;;;9.80;5.43;;;;;;;;;;5075085;28;20468;-65
2021/01/27 00:15:09;;;;;;;8.73;3.65;;;;;;;;;;5056612;28;21618;-65
2021/01/27 00:17:34;;;;;;;8.38;3.97;;;;;;;;;;5076257;28;20534;-65
2021/01/27 00:19:59;;;;;;;14.38;5.80;;;;;;;;;;5074867;28;20039;-65
2021/01/27 00:22:25;;;;;;;15.13;5.47;;;;;;;;;;5075133;28;20536;-65
2021/01/27 00:24:50;;;;;;;9.82;5.57;;;;;;;;;;5075785;28;20325;-65
2021/01/27 00:27:15;;;;;;;12.17;5.87;;;;;;;;;;5074381;28;20031;-65
2021/01/27 00:42:13;;;;;;;7.95;3.55;;;;;;;;;;5074084;28;20066;-65
2021/01/27 00:44:39;;;;;;;12.30;4.97;;;;;;;;;;5073109;28;20028;-65
2021/01/27 00:47:04;;;;;;;16.70;5.88;;;;;;;;;;5078328;28;20028;-65
2021/01/27 00:49:29;;;;;;;5.60;3.45;;;;;;;;;;5080219;28;20090;-65
2021/01/27 00:51:54;;;;;;;5.53;2.83;;;;;;;;;;5077629;28;20013;-65
2021/01/27 00:54:19;;;;;;;8.02;3.20;;;;;;;;;;5073126;28;20266;-65
2021/01/27 00:56:45;;;;;;;10.05;3.55;;;;;;;;;;5076047;28;20933;-65
2021/01/27 00:59:10;;;;;;;12.43;5.75;;;;;;;;;;5078277;28;20024;-65
2021/01/27 01:01:35;;;;;;;14.10;6.03;;;;;;;;;;5077908;28;20055;-65
2021/01/27 01:04:02;;;;;;;8.55;4.47;;;;;;;;;;5079024;28;20649;-65
2021/01/27 01:06:27;;;;;;;14.70;5.35;;;;;;;;;;5078991;28;20770;-65
2021/01/27 01:08:52;;;;;;;5.05;2.55;;;;;;;;;;5077935;28;20147;-65
2021/01/27 01:11:17;;;;;;;10.48;5.32;;;;;;;;;;5074749;28;20390;-65
2021/01/27 01:13:43;;;;;;;6.43;3.20;;;;;;;;;;5077471;28;20020;-65
2021/01/27 01:16:08;;;;;;;9.70;3.97;;;;;;;;;;5079135;28;20258;-65
2021/01/27 01:18:33;;;;;;;11.93;4.40;;;;;;;;;;5078494;28;20282;-65
2021/01/27 01:20:58;;;;;;;9.68;3.33;;;;;;;;;;5060645;28;20630;-65
2021/01/27 01:23:24;;;;;;;11.57;5.30;;;;;;;;;;5078377;28;20023;-65
2021/01/27 01:25:49;;;;;;;11.77;5.93;;;;;;;;;;5073698;28;20028;-65
2021/01/27 01:28:15;;;;;;;11.40;5.90;;;;;;;;;;5078870;28;20039;-65
2021/01/27 01:30:41;;;;;;;9.80;4.22;;;;;;;;;;5071891;28;20020;-64
2021/01/27 01:33:08;;;;;;;14.93;6.07;;;;;;;;;;5059631;28;20368;-64
2021/01/27 01:35:33;;;;;;;9.95;5.15;;;;;;;;;;5073486;28;20020;-65
2021/01/27 01:37:58;;;;;;;11.70;6.18;;;;;;;;;;5075952;28;20028;-64
2021/01/27 01:40:28;;;;;;;14.65;6.60;;;;;;;;;;5077383;28;20538;-64
2021/01/27 01:43:12;;;;;;;4.65;2.90;;;;;;;;;;5074246;28;20031;-65
2021/01/27 01:45:52;;;;;;;10.65;5.35;;;;;;;;;;5075460;28;20055;-65
2021/01/27 01:48:20;;;;;;;13.15;6.28;;;;;;;;;;5077780;28;20016;-64
2021/01/27 01:50:46;;;;;;;11.60;4.75;;;;;;;;;;5075377;28;20425;-64
2021/01/27 01:53:13;;;;;;;14.30;7.05;;;;;;;;;;5074028;28;20030;-64
2021/01/27 01:55:38;;;;;;;12.40;6.32;;;;;;;;;;5074400;28;20035;-64
2021/01/27 01:58:04;;;;;;;14.25;5.78;;;;;;;;;;5078658;28;20016;-64
2021/01/27 02:00:31;;;;;;;14.55;6.45;;;;;;;;;;5079257;28;20043;-64
2021/01/27 02:02:56;;;;;;;13.90;6.85;;;;;;;;;;5074843;28;20016;-64
2021/01/27 02:05:22;;;;;;;15.27;6.63;;;;;;;;;;5077086;28;20520;-65
2021/01/27 02:07:48;;;;;;;15.90;6.57;;;;;;;;;;5076027;28;20046;-64
2021/01/27 02:10:15;;;;;;;10.93;6.50;;;;;;;;;;5077173;28;20065;-64
2021/01/27 02:12:49;;;;;;;11.73;6.35;;;;;;;;;;5077148;28;20019;-64
2021/01/27 02:15:17;;;;;;;11.55;6.07;;;;;;;;;;5078384;28;20035;-64
2021/01/27 02:17:51;;;;;;;11.32;6.00;;;;;;;;;;5076054;28;20020;-64
2021/01/27 02:20:19;;;;;;;11.23;6.35;;;;;;;;;;5078050;28;20016;-65
2021/01/27 02:23:08;;;;;;;17.48;6.45;;;;;;;;;;5077422;28;20032;-64
2021/01/27 02:25:52;;;;;;;13.00;5.90;;;;;;;;;;5069605;28;20054;-64
2021/01/27 02:28:37;;;;;;;13.80;6.05;;;;;;;;;;5066612;28;20070;-64
2021/01/27 02:31:12;;;;;;;9.13;4.45;;;;;;;;;;5072420;28;20476;-64
2021/01/27 02:33:44;;;;;;;12.05;6.63;;;;;;;;;;5075501;28;20459;-64
2021/01/27 02:36:11;;;;;;;11.15;4.90;;;;;;;;;;5074885;28;20032;-64
2021/01/27 02:38:49;;;;;;;17.58;7.07;;;;;;;;;;5074019;28;20556;-64
2021/01/27 02:41:34;;;;;;;9.80;5.53;;;;;;;;;;5074264;28;20040;-65
2021/01/27 02:44:02;;;;;;;16.42;5.82;;;;;;;;;;5074734;28;20024;-64
2021/01/27 02:46:27;;;;;;;16.08;6.85;;;;;;;;;;5074196;28;20027;-64
2021/01/27 02:49:02;;;;;;;12.65;5.07;;;;;;;;;;5077263;28;20025;-65
2021/01/27 02:51:35;;;;;;;13.10;5.63;;;;;;;;;;5076336;28;20341;-64
2021/01/27 02:54:12;;;;;;;7.30;3.70;;;;;;;;;;5076027;28;20031;-64
2021/01/27 02:56:41;;;;;;;12.07;4.47;;;;;;;;;;5074263;28;20039;-64
2021/01/27 02:59:09;;;;;;;6.70;2.15;;;;;;;;;;5075421;28;20107;-64
2021/01/27 03:01:40;;;;;;;13.52;3.60;;;;;;;;;;5074925;28;20455;-64
2021/01/27 03:04:07;;;;;;;9.07;4.03;;;;;;;;;;5073781;28;20026;-64
2021/01/27 03:06:33;;;;;;;11.18;4.05;;;;;;;;;;5073641;28;20075;-64
2021/01/27 03:09:06;;;;;;;6.32;3.33;;;;;;;;;;5075926;28;20075;-64
2021/01/27 03:11:33;;;;;;;9.45;2.70;;;;;;;;;;5076383;28;20074;-64
2021/01/27 03:13:59;;;;;;;3.55;1.80;;;;;;;;;;5075432;28;20025;-64
2021/01/27 03:16:29;;;;;;;8.18;3.28;;;;;;;;;;5067429;28;20055;-64
2021/01/27 03:19:14;;;;;;;6.88;3.15;;;;;;;;;;5074752;28;20020;-64
2021/01/27 03:21:41;;;;;;;4.95;1.40;;;;;;;;;;5073414;28;20036;-64
2021/01/27 03:24:16;;;;;;;8.02;3.38;;;;;;;;;;5076346;28;20453;-64
2021/01/27 03:26:42;;;;;;;8.90;2.83;;;;;;;;;;5073376;28;20024;-64
2021/01/27 03:29:09;;;;;;;10.48;2.83;;;;;;;;;;5071097;28;20022;-64
2021/01/27 03:31:35;;;;;;;3.53;2.10;;;;;;;;;;5067093;28;20423;-64
2021/01/27 03:34:06;;;;;;;8.93;4.28;;;;;;;;;;5068633;28;20173;-64
2021/01/27 03:44:46;;;;;;;6.20;2.60;;;;;;;;;;5084979;28;20081;-67
2021/01/27 03:47:30;;;;;;;15.95;3.58;;;;;;;;;;5082951;28;20066;-67
2021/01/27 03:50:00;;;;;;;4.18;1.75;;;;;;;;;;5088179;28;20085;-67
2021/01/27 03:52:29;;;;;;;2.47;1.90;;;;;;;;;;5096599;28;20829;-67
2021/01/27 03:54:56;;;;;;;5.65;2.45;;;;;;;;;;5110079;22;20427;-65
2021/01/27 03:57:27;;;;;;;3.70;2.05;;;;;;;;;;5084226;28;20066;-65
2021/01/27 03:59:52;;;;;;;1.98;1.13;;;;;;;;;;5083543;28;20487;-65
2021/01/27 04:02:20;;;;;;;6.13;2.88;;;;;;;;;;5084605;28;20016;-65
2021/01/27 04:04:46;;;;;;;9.27;2.72;;;;;;;;;;5087154;28;20031;-65
2021/01/27 04:07:11;;;;;;;8.38;1.90;;;;;;;;;;5086609;28;20507;-65
2021/01/27 04:09:36;;;;;;;5.40;2.15;;;;;;;;;;5088309;28;20111;-64
2021/01/27 04:12:01;;;;;;;4.72;2.30;;;;;;;;;;5087836;28;20074;-65
2021/01/27 04:14:26;;;;;;;5.35;2.80;;;;;;;;;;5088369;28;20526;-65
2021/01/27 04:16:52;;;;;;;4.35;2.55;;;;;;;;;;5088538;28;20472;-65
2021/01/27 04:19:17;;;;;;;7.53;2.53;;;;;;;;;;5090311;28;20276;-65
2021/01/27 04:21:42;;;;;;;4.10;1.48;;;;;;;;;;5087944;28;20571;-65
2021/01/27 04:24:07;;;;;;;2.85;1.75;;;;;;;;;;5091990;28;20019;-65
2021/01/27 04:26:34;;;;;;;7.43;2.95;;;;;;;;;;5090635;28;20776;-65
2021/01/27 04:28:59;;;;;;;5.85;2.83;;;;;;;;;;5094451;28;20564;-66
2021/01/27 04:31:24;;;;;;;3.50;1.90;;;;;;;;;;5092665;28;20108;-66
2021/01/27 04:33:49;;;;;;;6.70;2.67;;;;;;;;;;5089243;28;20316;-63
2021/01/27 04:36:14;;;;;;;3.22;1.55;;;;;;;;;;5089464;28;20283;-67
2021/01/27 04:38:39;;;;;;;3.13;1.67;;;;;;;;;;5090012;28;20035;-65
2021/01/27 04:41:05;;;;;;;2.45;2.17;;;;;;;;;;5089503;28;20050;-65
2021/01/27 04:43:41;;;;;;;3.83;2.10;;;;;;;;;;5090511;28;20024;-64
2021/01/27 04:46:13;;;;;;;5.25;2.00;;;;;;;;;;5090323;28;20016;-65
2021/01/27 04:48:38;;;;;;;2.28;1.38;;;;;;;;;;5090080;28;20031;-67
2021/01/27 04:51:04;;;;;;;4.57;2.13;;;;;;;;;;5090131;28;20046;-66
2021/01/27 04:53:29;;;;;;;4.78;2.25;;;;;;;;;;5089791;28;20304;-65
2021/01/27 04:56:13;;;;;;;7.55;3.15;;;;;;;;;;5089665;28;20608;-66
2021/01/27 04:58:57;;;;;;;3.53;1.67;;;;;;;;;;5088244;28;20254;-64
2021/01/27 05:01:40;;;;;;;9.73;2.90;;;;;;;;;;5088083;28;20042;-66
2021/01/27 05:04:08;;;;;;;4.40;1.38;;;;;;;;;;5089752;28;20023;-65
2021/01/27 05:06:35;;;;;;;4.07;1.88;;;;;;;;;;5087470;28;20419;-66
2021/01/27 05:09:07;;;;;;;3.78;1.98;;;;;;;;;;5087976;28;20149;-65
2021/01/27 05:11:32;;;;;;;3.88;2.58;;;;;;;;;;5088911;28;20519;-66
2021/01/27 05:13:59;;;;;;;5.07;2.05;;;;;;;;;;5089586;28;20048;-64
2021/01/27 05:16:26;;;;;;;4.40;2.33;;;;;;;;;;5089492;28;20020;-66
2021/01/27 05:18:51;;;;;;;6.93;1.80;;;;;;;;;;5087105;28;20039;-65
2021/01/27 05:21:20;;;;;;;4.68;1.80;;;;;;;;;;5087723;28;20028;-65
2021/01/27 05:23:46;;;;;;;3.22;1.98;;;;;;;;;;5088764;28;20460;-65
2021/01/27 05:26:14;;;;;;;8.90;2.90;;;;;;;;;;5088525;28;20089;-65
2021/01/27 05:28:41;;;;;;;4.97;1.67;;;;;;;;;;5088556;28;20301;-65
2021/01/27 05:31:06;;;;;;;3.33;1.80;;;;;;;;;;5088317;28;20016;-64
2021/01/27 05:33:41;;;;;;;17.98;2.45;;;;;;;;;;5070127;28;20384;-65
2021/01/27 05:36:07;;;;;;;4.22;2.17;;;;;;;;;;5088451;28;20016;-65
2021/01/27 05:38:32;;;;;;;3.40;1.45;;;;;;;;;;5088622;28;20028;-65
2021/01/27 05:41:12;;;;;;;15.75;2.63;;;;;;;;;;5088284;28;20011;-64
2021/01/27 05:43:38;;;;;;;4.40;2.58;;;;;;;;;;5087444;28;20054;-64
2021/01/27 05:46:14;;;;;;;3.00;1.52;;;;;;;;;;5088629;28;20468;-65
2021/01/27 05:48:47;;;;;;;2.33;1.40;;;;;;;;;;5088632;28;20533;-64
2021/01/27 05:51:14;;;;;;;7.32;2.17;;;;;;;;;;5087965;28;20042;-65
2021/01/27 05:53:39;;;;;;;9.25;2.60;;;;;;;;;;5087640;28;20470;-65
2021/01/27 05:56:17;;;;;;;4.20;1.95;;;;;;;;;;5087935;28;20036;-65
2021/01/27 05:58:57;;;;;;;6.43;3.10;;;;;;;;;;5087933;28;20023;-65
2021/01/27 06:01:22;;;;;;;;;;;;;;;;;;5088424;28;20024;-65
2021/01/27 06:03:52;;;;;;;7.13;2.65;;;;;;;;;;5088270;28;20397;-65
2021/01/27 06:06:17;;;;;;;3.03;1.83;;;;;;;;;;5087208;28;20045;-65
2021/01/27 06:08:50;;;;;;;6.93;2.22;;;;;;;;;;5087778;28;20024;-65
2021/01/27 06:11:15;;;;;;;4.38;2.40;;;;;;;;;;5087914;28;20110;-65
2021/01/27 06:13:40;;;;;;;5.80;1.58;;;;;;;;;;5087957;28;20024;-65
2021/01/27 06:16:22;;;;;;;4.63;2.60;;;;;;;;;;5087235;28;20051;-65
2021/01/27 06:18:47;;;;;;;10.73;3.00;;;;;;;;;;5088001;28;20266;-65
2021/01/27 06:21:12;;;;;;;5.25;2.05;;;;;;;;;;5083263;28;20036;-65
2021/01/27 06:23:46;;;;;;;2.88;1.77;;;;;;;;;;5087431;28;20365;-65
2021/01/27 06:26:17;;;;;;;2.50;1.63;;;;;;;;;;5087331;28;20250;-65
2021/01/27 06:28:53;;;;;;;3.47;1.98;;;;;;;;;;5085979;28;20562;-65
2021/01/27 06:31:37;;;;;;;3.17;1.83;;;;;;;;;;5087358;28;20024;-65
2021/01/27 06:34:21;;;;;;;3.10;1.52;;;;;;;;;;5087643;28;20065;-65
2021/01/27 06:37:07;;;;;;;5.82;2.80;;;;;;;;;;5086484;28;20057;-65
2021/01/27 06:39:32;;;;;;;5.65;1.75;;;;;;;;;;5086881;28;20039;-65
2021/01/27 06:42:06;;;;;;;6.47;2.90;;;;;;;;;;5086898;28;20016;-65
2021/01/27 06:44:44;;;;;;;7.97;2.85;;;;;;;;;;5086770;28;20671;-65
2021/01/27 06:47:22;;;;;;;9.48;3.75;;;;;;;;;;5086795;28;20383;-65
2021/01/27 06:50:06;;;;;;;7.93;3.30;;;;;;;;;;5087064;28;20012;-65
2021/01/27 06:52:31;;;;;;;6.93;2.95;;;;;;;;;;5085738;28;20043;-65
2021/01/27 06:55:02;;;;;;;6.47;3.28;;;;;;;;;;5085989;28;20020;-65
2021/01/27 06:57:36;;;;;;;7.00;2.88;;;;;;;;;;5085380;28;20266;-65
2021/01/27 07:00:13;;;;;;;6.32;2.78;;;;;;;;;;5091973;28;20028;-65
2021/01/27 07:02:49;;;;;;;4.32;2.67;;;;;;;;;;5084510;28;20541;-66
2021/01/27 07:05:17;;;;;;;14.63;4.38;;;;;;;;;;5084306;28;20028;-65
2021/01/27 07:07:45;;;;;;;5.47;3.15;;;;;;;;;;5084094;28;20027;-65
2021/01/27 07:10:13;;;;;;;9.05;4.88;;;;;;;;;;5085690;28;20522;-65
2021/01/27 07:12:42;;;;;;;7.43;4.50;;;;;;;;;;5085078;28;20762;-66
2021/01/27 07:15:17;;;;;;;8.20;4.35;;;;;;;;;;5085089;28;20028;-66
2021/01/27 07:18:00;;;;;;;16.05;5.25;;;;;;;;;;5084923;28;20119;-66
2021/01/27 07:20:28;;;;;;;11.25;5.72;;;;;;;;;;5085396;28;20027;-66
2021/01/27 07:22:59;;;;;;;7.10;4.13;;;;;;;;;;5085177;28;20020;-66
2021/01/27 07:25:28;;;;;;;9.52;5.00;;;;;;;;;;5067869;28;20032;-67
2021/01/27 07:27:59;;;;;;;7.50;3.92;;;;;;;;;;5085001;28;20035;-66
2021/01/27 07:30:39;;;;;;;14.93;5.28;;;;;;;;;;5084419;28;20743;-66
2021/01/27 07:33:07;;;;;;;9.52;2.75;;;;;;;;;;5084879;28;20019;-65
2021/01/27 07:35:38;;;;;;;16.20;4.93;;;;;;;;;;5085201;28;20032;-65
2021/01/27 07:38:12;;;;;;;5.90;3.67;;;;;;;;;;5086380;28;20035;-65
2021/01/27 07:40:58;;;;;;;6.93;3.38;;;;;;;;;;5084738;28;20062;-65
2021/01/27 07:43:31;;;;;;;9.20;4.80;;;;;;;;;;5085354;28;20032;-65
2021/01/27 07:45:58;;;;;;;10.77;4.65;;;;;;;;;;5086278;28;20055;-65
2021/01/27 07:48:31;;;;;;;6.32;2.90;;;;;;;;;;5084235;28;20016;-66
2021/01/27 07:50:57;;;;;;;5.85;2.97;;;;;;;;;;5085923;28;20019;-66
2021/01/27 07:53:25;;;;;;;10.85;3.97;;;;;;;;;;5085845;28;20055;-66
2021/01/27 07:56:00;;;;;;;19.98;5.18;;;;;;;;;;5086569;28;20107;-66
2021/01/27 07:58:28;;;;;;;10.55;4.50;;;;;;;;;;5090054;28;20016;-66
2021/01/27 08:00:56;;;;;;;11.13;3.28;;;;;;;;;;5085176;28;20551;-66
2021/01/27 08:03:21;;;;;;;6.03;2.53;;;;;;;;;;5085976;28;20070;-66
2021/01/27 08:05:47;;;;;;;4.60;2.85;;;;;;;;;;5095790;28;20028;-66
2021/01/27 08:08:14;;;;;;;10.50;4.32;;;;;;;;;;5089732;28;20024;-66
2021/01/27 08:10:40;;;;;;;6.82;3.20;;;;;;;;;;5089613;28;20020;-66
2021/01/27 08:13:07;;;;;;;5.30;3.65;;;;;;;;;;5089455;28;20023;-66
2021/01/27 08:15:32;;;;;;;8.50;3.85;;;;;;;;;;5089417;28;20383;-66
2021/01/27 08:18:01;;;;;;;9.38;4.25;;;;;;;;;;5089671;28;20081;-66
2021/01/27 08:20:37;;;;;;;11.90;5.60;;;;;;;;;;5089292;28;20047;-66
2021/01/27 08:23:02;;;;;;;10.02;4.00;;;;;;;;;;5085450;28;20266;-66
2021/01/27 08:25:46;;;;;;;6.72;3.53;;;;;;;;;;5087702;28;20020;-66
2021/01/27 08:28:29;;;;;;;3.33;2.33;;;;;;;;;;5089490;28;20175;-66
2021/01/27 08:31:18;;;;;;;11.82;5.60;;;;;;;;;;5088862;28;20052;-66
2021/01/27 08:33:46;;;;;;;10.32;5.57;;;;;;;;;;5078133;28;20040;-66
2021/01/27 08:36:14;;;;;;;6.10;3.15;;;;;;;;;;5087369;28;20068;-67
2021/01/27 08:38:42;;;;;;;2.83;1.73;;;;;;;;;;5086552;28;20108;-66
2021/01/27 08:41:09;;;;;;;5.00;1.95;;;;;;;;;;5088636;28;20061;-66
2021/01/27 08:43:51;;;;;;;3.90;2.67;;;;;;;;;;5091155;28;20028;-67
2021/01/27 08:46:27;;;;;;;4.63;2.65;;;;;;;;;;5088416;28;20013;-66
2021/01/27 08:48:52;;;;;;;6.68;2.63;;;;;;;;;;5088223;28;20503;-67
2021/01/27 08:51:36;;;;;;;10.57;3.58;;;;;;;;;;5087800;28;20024;-65
2021/01/27 08:54:19;;;;;;;8.75;4.00;;;;;;;;;;5098315;28;20020;-68
2021/01/27 08:57:05;;;;;;;6.10;3.35;;;;;;;;;;5089142;28;20031;-68
2021/01/27 08:59:30;;;;;;;8.43;3.83;;;;;;;;;;5036777;28;20036;-66
2021/01/27 09:01:55;;;;;;;3.53;1.83;;;;;;;;;;5093171;28;20027;-67
2021/01/27 09:04:36;;;;;;;3.80;2.30;;;;;;;;;;5088922;28;20024;-65
2021/01/27 09:07:04;;;;;;;6.70;3.03;;;;;;;;;;5089578;28;20016;-65
2021/01/27 09:09:31;;;;;;;5.85;3.33;;;;;;;;;;5088792;28;20012;-66
2021/01/27 09:12:06;;;;;;;9.68;2.95;;;;;;;;;;5088226;28;20050;-66
2021/01/27 09:14:32;;;;;;;7.85;3.17;;;;;;;;;;5085005;28;20046;-67
2021/01/27 09:16:59;;;;;;;5.93;2.10;;;;;;;;;;5089992;28;20035;-67
2021/01/27 09:19:28;;;;;;;5.75;3.08;;;;;;;;;;5089430;28;20070;-66
2021/01/27 09:22:13;;;;;;;5.45;2.78;;;;;;;;;;5089043;28;21738;-67
2021/01/27 09:24:41;;;;;;;5.43;2.75;;;;;;;;;;5088196;28;20036;-66
2021/01/27 09:27:27;;;;;;;4.28;2.55;;;;;;;;;;5089520;28;20020;-67
2021/01/27 09:29:56;;;;;;;2.85;2.08;;;;;;;;;;5087856;28;20061;-67
2021/01/27 09:32:22;;;;;;;4.20;2.10;;;;;;;;;;5087397;28;20069;-65
2021/01/27 09:34:49;;;;;;;4.32;2.58;;;;;;;;;;5089168;28;20055;-66
2021/01/27 09:37:17;;;;;;;5.32;2.60;;;;;;;;;;5087021;28;20020;-66
2021/01/27 09:40:05;;;;;;;5.50;1.75;;;;;;;;;;5088507;28;20419;-67
2021/01/27 09:42:30;;;;;;;9.05;3.00;;;;;;;;;;5086873;28;20055;-66
2021/01/27 09:45:07;;;;;;;5.55;3.28;;;;;;;;;;5088269;28;20047;-67
2021/01/27 09:47:34;;;;;;;6.05;2.78;;;;;;;;;;5089459;28;20034;-66
2021/01/27 09:50:00;;;;;;;4.63;2.72;;;;;;;;;;5089730;28;20020;-66
2021/01/27 09:52:26;;;;;;;5.85;3.55;;;;;;;;;;5088407;28;20020;-66
2021/01/27 09:54:54;;;;;;;4.07;2.75;;;;;;;;;;5089537;28;20365;-67
2021/01/27 09:57:20;;;;;;;3.17;2.05;;;;;;;;;;5088805;28;20038;-66
2021/01/27 09:59:50;;;;;;;1.85;1.40;;;;;;;;;;5089687;28;20067;-65
2021/01/27 10:02:23;;;;;;;3.05;2.05;;;;;;;;;;5086987;28;20027;-66
2021/01/27 10:04:49;;;;;;;4.25;1.92;;;;;;;;;;5086997;28;20055;-67
2021/01/27 10:07:18;;;;;;;10.82;3.10;;;;;;;;;;5089719;28;20020;-66
2021/01/27 10:09:59;;;;;;;3.38;1.60;;;;;;;;;;5090454;28;20499;-67
2021/01/27 10:12:26;;;;;;;9.40;3.40;;;;;;;;;;5101509;28;20024;-67
2021/01/27 10:15:09;;;;;;;3.45;2.05;;;;;;;;;;5089379;28;20036;-67
2021/01/27 10:17:35;;;;;;;3.58;2.40;;;;;;;;;;5089140;28;20051;-66
2021/01/27 10:20:03;;;;;;;4.13;2.95;;;;;;;;;;5091590;28;20488;-65
2021/01/27 10:22:30;;;;;;;5.47;3.30;;;;;;;;;;5090530;28;20020;-64
2021/01/27 10:24:59;;;;;;;4.63;2.03;;;;;;;;;;5089941;28;20392;-68
2021/01/27 10:27:35;;;;;;;9.43;4.20;;;;;;;;;;5088847;28;20491;-67
2021/01/27 10:30:03;;;;;;;8.40;3.60;;;;;;;;;;5090590;28;20020;-66
2021/01/27 10:32:31;;;;;;;9.98;5.65;;;;;;;;;;5090681;28;20128;-67
2021/01/27 10:34:57;;;;;;;7.03;3.97;;;;;;;;;;5091102;28;20016;-66
2021/01/27 10:37:43;;;;;;;13.35;5.90;;;;;;;;;;5090957;28;20099;-69
2021/01/27 10:40:17;;;;;;;11.20;5.72;;;;;;;;;;5083549;28;20346;-67
2021/01/27 10:42:47;;;;;;;3.83;2.67;;;;;;;;;;5090366;28;20431;-68
2021/01/27 10:45:19;;;;;;;10.75;5.55;;;;;;;;;;5091094;28;20028;-67
2021/01/27 10:47:52;;;;;;;6.03;3.45;;;;;;;;;;5091191;28;20024;-66
2021/01/27 10:50:17;;;;;;;13.13;5.32;;;;;;;;;;5090888;28;20528;-67
2021/01/27 10:52:42;;;;;;;12.95;6.20;;;;;;;;;;5091143;28;20103;-68
2021/01/27 10:55:11;;;;;;;10.40;5.68;;;;;;;;;;5091529;28;20042;-66
2021/01/27 10:57:36;;;;;;;6.90;4.28;;;;;;;;;;5090568;28;20019;-67
2021/01/27 11:00:03;;;;;;;6.15;3.20;;;;;;;;;;5091088;28;20020;-67
2021/01/27 11:02:31;;;;;;;6.00;2.90;;;;;;;;;;5104440;28;20046;-69
2021/01/27 11:04:56;;;;;;;3.60;2.38;;;;;;;;;;5094125;28;20395;-66
2021/01/27 11:07:22;;;;;;;7.35;4.55;;;;;;;;;;5094727;28;20012;-67
2021/01/27 11:09:47;;;;;;;4.28;2.35;;;;;;;;;;5085795;28;20032;-68
2021/01/27 11:12:12;;;;;;;4.32;2.15;;;;;;;;;;5089391;28;20015;-67
2021/01/27 11:14:38;;;;;;;7.93;4.03;;;;;;;;;;5089661;28;20532;-66
2021/01/27 11:17:03;;;;;;;5.80;3.60;;;;;;;;;;5092270;28;20024;-66
2021/01/27 11:19:28;;;;;;;5.53;3.35;;;;;;;;;;5090323;28;20020;-67
2021/01/27 11:21:53;;;;;;;3.13;1.85;;;;;;;;;;5090172;28;20063;-68
2021/01/27 11:24:18;;;;;;;5.35;3.22;;;;;;;;;;5089782;28;20046;-66
2021/01/27 11:26:44;;;;;;;8.30;4.55;;;;;;;;;;5089032;28;20108;-65
2021/01/27 11:29:09;;;;;;;4.70;2.70;;;;;;;;;;5088829;28;20028;-64
2021/01/27 11:31:35;;;;;;;4.55;2.72;;;;;;;;;;5085340;28;20012;-66
2021/01/27 11:34:00;;;;;;;10.80;6.47;;;;;;;;;;5089597;28;20028;-65
2021/01/27 11:36:25;;;;;;;8.95;4.78;;;;;;;;;;5089241;28;20526;-66
2021/01/27 11:38:51;;;;;;;7.10;2.60;;;;;;;;;;5089817;28;20012;-67
2021/01/27 11:41:18;;;;;;;10.90;6.22;;;;;;;;;;5089379;28;20073;-67
2021/01/27 11:43:43;;;;;;;4.68;2.55;;;;;;;;;;5089562;28;20036;-64
2021/01/27 11:46:12;;;;;;;8.50;4.57;;;;;;;;;;5085966;28;20015;-67
2021/01/27 11:48:38;;;;;;;11.93;5.25;;;;;;;;;;5090489;28;20032;-67
2021/01/27 11:51:03;;;;;;;13.55;5.20;;;;;;;;;;5089741;28;20464;-68
2021/01/27 11:53:29;;;;;;;2.55;1.40;;;;;;;;;;5091451;28;20023;-68
2021/01/27 11:55:54;;;;;;;3.53;2.25;;;;;;;;;;5089315;28;20047;-67
2021/01/27 11:58:19;;;;;;;6.43;4.35;;;;;;;;;;5085935;28;20021;-67
2021/01/27 12:00:44;;;;;;;4.57;2.55;;;;;;;;;;5091680;28;20023;-67
2021/01/27 12:03:09;;;;;;;10.70;5.13;;;;;;;;;;5091538;28;20024;-66
2021/01/27 12:05:35;;;;;;;7.30;3.85;;;;;;;;;;5097984;28;20476;-64
2021/01/27 12:08:00;;;;;;;5.03;2.55;;;;;;;;;;5100389;28;20043;-67
2021/01/27 12:10:26;;;;;;;6.75;3.55;;;;;;;;;;5088871;28;20013;-65
2021/01/27 12:12:51;;;;;;;11.63;5.07;;;;;;;;;;5089408;28;20025;-64
2021/01/27 12:15:17;;;;;;;3.90;2.67;;;;;;;;;;5089415;28;20192;-64
2021/01/27 12:17:42;;;;;;;3.28;2.47;;;;;;;;;;5095443;28;20034;-65
2021/01/27 12:20:10;;;;;;;6.30;3.60;;;;;;;;;;5089162;28;20012;-65
2021/01/27 12:22:35;;;;;;;6.35;3.75;;;;;;;;;;5089445;28;20368;-65
2021/01/27 12:25:00;;;;;;;8.23;3.90;;;;;;;;;;5088070;28;20016;-65
2021/01/27 12:27:25;;;;;;;7.85;4.10;;;;;;;;;;5091351;28;20020;-64
2021/01/27 12:29:50;;;;;;;7.05;2.45;;;;;;;;;;5093496;28;20046;-65
2021/01/27 12:32:16;;;;;;;9.90;5.82;;;;;;;;;;5093499;28;20016;-65
2021/01/27 12:34:41;;;;;;;9.38;5.28;;;;;;;;;;5093330;28;20099;-65
2021/01/27 12:37:06;;;;;;;4.90;3.53;;;;;;;;;;5093678;28;20055;-65
2021/01/27 12:39:31;;;;;;;8.50;5.00;;;;;;;;;;5093253;28;20032;-65
2021/01/27 12:41:56;;;;;;;8.38;5.40;;;;;;;;;;5093095;28;20067;-65
2021/01/27 12:44:22;;;;;;;6.50;3.45;;;;;;;;;;5093111;28;20632;-65
2021/01/27 12:46:47;;;;;;;9.57;6.22;;;;;;;;;;5092996;28;20472;-65
2021/01/27 12:49:13;;;;;;;10.75;4.03;;;;;;;;;;5091943;28;20107;-65
2021/01/27 12:51:38;;;;;;;7.10;4.70;;;;;;;;;;5092935;28;20446;-65
2021/01/27 12:54:03;;;;;;;8.73;4.38;;;;;;;;;;5093326;28;20020;-65
2021/01/27 12:56:29;;;;;;;8.68;5.05;;;;;;;;;;5093375;28;20442;-65
2021/01/27 12:58:54;;;;;;;6.70;3.78;;;;;;;;;;5092777;28;20020;-65
2021/01/27 13:01:20;;;;;;;7.65;4.70;;;;;;;;;;5091515;28;20752;-66
2021/01/27 13:03:45;;;;;;;9.43;5.80;;;;;;;;;;5095028;28;20024;-66
2021/01/27 13:06:12;;;;;;;12.23;6.03;;;;;;;;;;5105288;28;20464;-66
2021/01/27 13:08:37;;;;;;;3.03;2.15;;;;;;;;;;5100876;28;20020;-67
2021/01/27 13:11:02;;;;;;;5.20;3.33;;;;;;;;;;5098879;28;20019;-66
2021/01/27 13:13:28;;;;;;;10.48;5.70;;;;;;;;;;5095538;28;20032;-66
2021/01/27 13:15:53;;;;;;;9.93;5.70;;;;;;;;;;5098796;28;20016;-65
2021/01/27 13:18:18;;;;;;;8.25;3.42;;;;;;;;;;5097469;28;20016;-67
2021/01/27 13:20:43;;;;;;;12.50;7.55;;;;;;;;;;5099043;28;20384;-66
2021/01/27 13:23:08;;;;;;;17.63;6.68;;;;;;;;;;5097488;28;20023;-66
2021/01/27 13:25:33;;;;;;;15.07;6.28;;;;;;;;;;5097875;28;20050;-66
2021/01/27 13:28:00;;;;;;;7.78;4.22;;;;;;;;;;5098368;28;20076;-66
2021/01/27 13:30:25;;;;;;;19.85;10.65;;;;;;;;;;5096515;28;20030;-66
2021/01/27 13:32:50;;;;;;;4.60;2.85;;;;;;;;;;5096766;28;20531;-67
2021/01/27 13:35:18;;;;;;;13.98;8.65;;;;;;;;;;5099080;28;20027;-66
2021/01/27 13:37:43;;;;;;;17.33;8.40;;;;;;;;;;5095793;28;20062;-66
2021/01/27 13:40:09;;;;;;;14.43;7.47;;;;;;;;;;5097522;28;20098;-66
2021/01/27 13:42:34;;;;;;;14.70;9.05;;;;;;;;;;5096051;28;20024;-66
2021/01/27 13:44:59;;;;;;;11.18;5.38;;;;;;;;;;5100544;28;20149;-67
2021/01/27 13:47:25;;;;;;;12.32;7.20;;;;;;;;;;5100195;28;20745;-66
2021/01/27 13:49:50;;;;;;;18.27;8.90;;;;;;;;;;5100543;28;20663;-67
2021/01/27 13:52:16;;;;;;;13.70;8.95;;;;;;;;;;5096841;28;20027;-67
2021/01/27 13:54:41;;;;;;;13.27;6.53;;;;;;;;;;5095660;28;20028;-67
2021/01/27 13:57:06;;;;;;;16.08;9.70;;;;;;;;;;5095015;28;20023;-67
2021/01/27 13:59:32;;;;;;;20.45;10.90;;;;;;;;;;5095932;28;20047;-66
2021/01/27 14:01:57;;;;;;;19.27;10.95;;;;;;;;;;5097980;28;20039;-67
2021/01/27 14:04:22;;;;;;;20.08;10.43;;;;;;;;;;5094547;28;20028;-66
2021/01/27 14:06:47;;;;;;;23.65;10.98;;;;;;;;;;5097129;28;20016;-66
2021/01/27 14:09:12;;;;;;;20.65;12.13;;;;;;;;;;5097533;28;20046;-67
2021/01/27 14:11:37;;;;;;;22.42;10.90;;;;;;;;;;5093644;28;20091;-66
2021/01/27 14:14:03;;;;;;;21.83;11.80;;;;;;;;;;5096162;28;20084;-66
2021/01/27 14:16:28;;;;;;;28.00;12.57;;;;;;;;;;5097034;28;20062;-67
2021/01/27 14:18:54;;;;;;;23.33;13.13;;;;;;;;;;5094653;28;20042;-66
2021/01/27 14:21:20;;;;;;;26.63;12.10;;;;;;;;;;5091113;28;20090;-66
2021/01/27 14:23:45;;;;;;;21.33;12.88;;;;;;;;;;5096172;28;20035;-65
2021/01/27 14:26:11;;;;;;;24.48;13.70;;;;;;;;;;5093297;28;20475;-67
2021/01/27 14:28:36;;;;;;;22.30;10.93;;;;;;;;;;5096274;28;20027;-66
2021/01/27 14:31:01;;;;;;;24.60;13.43;;;;;;;;;;5089963;28;20016;-66
2021/01/27 14:33:26;;;;;;;33.03;15.02;;;;;;;;;;5097324;28;20034;-68
2021/01/27 14:35:52;;;;;;;23.48;13.40;;;;;;;;;;5095233;28;20520;-66
2021/01/27 14:38:18;;;;;;;24.98;13.15;;;;;;;;;;5095971;28;20150;-67
2021/01/27 14:40:43;;;;;;;29.52;14.52;;;;;;;;;;5095046;28;20016;-67
2021/01/27 14:43:08;;;;;;;37.25;16.20;;;;;;;;;;5089708;28;20676;-66
2021/01/27 14:45:33;;;;;;;36.90;17.10;;;;;;;;;;5085560;28;20025;-66
2021/01/27 14:47:59;;;;;;;33.78;18.60;;;;;;;;;;5095892;28;20258;-66
2021/01/27 14:50:24;;;;;;;37.00;17.90;;;;;;;;;;5093298;28;20120;-66
2021/01/27 14:52:50;;;;;;;31.60;15.95;;;;;;;;;;5090670;28;20468;-66
2021/01/27 14:55:15;;;;;;;25.75;14.80;;;;;;;;;;5093570;28;20042;-66
2021/01/27 14:57:40;;;;;;;26.77;13.40;;;;;;;;;;5096210;28;20102;-67
2021/01/27 15:00:06;;;;;;;21.95;11.90;;;;;;;;;;5089678;28;20482;-66
2021/01/27 15:02:32;;;;;;;24.88;12.80;;;;;;;;;;5088240;28;20147;-67
2021/01/27 15:04:57;;;;;;;30.50;13.83;;;;;;;;;;5087247;28;20103;-67
2021/01/27 15:07:22;;;;;;;24.27;13.07;;;;;;;;;;5090085;28;20262;-66